sensor_id;sensor_type;location;lat;lon;timestamp;temperature;humidity
75451;DHT22;64029;48.244;9.188;2023-08-06T00:01:06;14.90;77.80
75451;DHT22;64029;48.244;9.188;2023-08-06T00:03:33;14.90;78.20
75451;DHT22;64029;48.244;9.188;2023-08-06T00:06:00;14.80;78.20
75451;DHT22;64029;48.244;9.188;2023-08-06T00:08:28;14.80;78.10
75451;DHT22;64029;48.244;9.188;2023-08-06T00:10:55;14.80;78.00
75451;DHT22;64029;48.244;9.188;2023-08-06T00:13:22;14.70;78.00
75451;DHT22;64029;48.244;9.188;2023-08-06T00:15:49;14.70;78.10
75451;DHT22;64029;48.244;9.188;2023-08-06T00:18:16;14.70;78.00
75451;DHT22;64029;48.244;9.188;2023-08-06T00:20:43;14.60;77.70
75451;DHT22;64029;48.244;9.188;2023-08-06T00:23:10;14.50;77.60
75451;DHT22;64029;48.244;9.188;2023-08-06T00:25:38;14.50;77.50
75451;DHT22;64029;48.244;9.188;2023-08-06T00:28:05;14.40;77.40
75451;DHT22;64029;48.244;9.188;2023-08-06T00:30:32;14.40;77.40
75451;DHT22;64029;48.244;9.188;2023-08-06T00:32:59;14.40;77.20
75451;DHT22;64029;48.244;9.188;2023-08-06T00:35:26;14.40;77.10
75451;DHT22;64029;48.244;9.188;2023-08-06T00:37:53;14.30;76.80
75451;DHT22;64029;48.244;9.188;2023-08-06T00:40:20;14.30;76.80
75451;DHT22;64029;48.244;9.188;2023-08-06T00:42:49;14.20;76.60
75451;DHT22;64029;48.244;9.188;2023-08-06T00:45:16;14.10;76.60
75451;DHT22;64029;48.244;9.188;2023-08-06T00:47:43;14.10;76.40
75451;DHT22;64029;48.244;9.188;2023-08-06T00:50:11;14.10;76.60
75451;DHT22;64029;48.244;9.188;2023-08-06T00:52:38;14.00;76.70
75451;DHT22;64029;48.244;9.188;2023-08-06T00:55:07;13.90;76.50
75451;DHT22;64029;48.244;9.188;2023-08-06T00:57:34;13.90;76.40
75451;DHT22;64029;48.244;9.188;2023-08-06T01:00:06;13.80;76.20
75451;DHT22;64029;48.244;9.188;2023-08-06T01:02:33;13.80;76.00
75451;DHT22;64029;48.244;9.188;2023-08-06T01:05:00;13.70;76.10
75451;DHT22;64029;48.244;9.188;2023-08-06T01:07:40;13.60;75.70
75451;DHT22;64029;48.244;9.188;2023-08-06T01:10:23;13.60;75.90
75451;DHT22;64029;48.244;9.188;2023-08-06T01:12:56;13.60;76.10
75451;DHT22;64029;48.244;9.188;2023-08-06T01:15:30;13.50;76.10
75451;DHT22;64029;48.244;9.188;2023-08-06T01:17:59;13.50;76.20
75451;DHT22;64029;48.244;9.188;2023-08-06T01:20:32;13.40;75.80
75451;DHT22;64029;48.244;9.188;2023-08-06T01:23:02;13.40;75.80
75451;DHT22;64029;48.244;9.188;2023-08-06T01:25:33;13.40;75.80
75451;DHT22;64029;48.244;9.188;2023-08-06T01:28:04;13.30;75.80
75451;DHT22;64029;48.244;9.188;2023-08-06T01:30:34;13.30;76.10
75451;DHT22;64029;48.244;9.188;2023-08-06T01:33:04;13.30;76.60
75451;DHT22;64029;48.244;9.188;2023-08-06T01:35:34;13.30;76.50
75451;DHT22;64029;48.244;9.188;2023-08-06T01:38:05;13.30;76.60
75451;DHT22;64029;48.244;9.188;2023-08-06T01:40:35;13.30;76.30
75451;DHT22;64029;48.244;9.188;2023-08-06T01:43:04;13.20;77.40
75451;DHT22;64029;48.244;9.188;2023-08-06T01:45:33;13.20;77.50
75451;DHT22;64029;48.244;9.188;2023-08-06T01:48:05;13.10;78.00
75451;DHT22;64029;48.244;9.188;2023-08-06T01:50:33;13.10;78.40
75451;DHT22;64029;48.244;9.188;2023-08-06T01:53:07;13.10;77.10
75451;DHT22;64029;48.244;9.188;2023-08-06T01:55:34;13.10;77.00
75451;DHT22;64029;48.244;9.188;2023-08-06T01:58:01;13.10;76.80
75451;DHT22;64029;48.244;9.188;2023-08-06T02:00:28;13.10;76.80
75451;DHT22;64029;48.244;9.188;2023-08-06T02:02:56;13.00;76.80
75451;DHT22;64029;48.244;9.188;2023-08-06T02:05:28;13.00;76.70
75451;DHT22;64029;48.244;9.188;2023-08-06T02:07:58;12.90;77.00
75451;DHT22;64029;48.244;9.188;2023-08-06T02:10:25;12.90;76.90
75451;DHT22;64029;48.244;9.188;2023-08-06T02:12:52;12.90;77.40
75451;DHT22;64029;48.244;9.188;2023-08-06T02:15:19;12.90;77.20
75451;DHT22;64029;48.244;9.188;2023-08-06T02:17:46;12.80;76.70
75451;DHT22;64029;48.244;9.188;2023-08-06T02:20:13;12.80;76.70
75451;DHT22;64029;48.244;9.188;2023-08-06T02:22:40;12.80;76.70
75451;DHT22;64029;48.244;9.188;2023-08-06T02:25:12;12.70;76.60
75451;DHT22;64029;48.244;9.188;2023-08-06T02:27:42;12.70;76.40
75451;DHT22;64029;48.244;9.188;2023-08-06T02:30:09;12.70;76.30
75451;DHT22;64029;48.244;9.188;2023-08-06T02:32:36;12.70;76.20
75451;DHT22;64029;48.244;9.188;2023-08-06T02:35:03;12.60;76.20
75451;DHT22;64029;48.244;9.188;2023-08-06T02:37:30;12.60;76.20
75451;DHT22;64029;48.244;9.188;2023-08-06T02:39:59;12.50;76.20
75451;DHT22;64029;48.244;9.188;2023-08-06T02:42:27;12.50;76.40
75451;DHT22;64029;48.244;9.188;2023-08-06T02:44:54;12.50;76.40
75451;DHT22;64029;48.244;9.188;2023-08-06T02:47:21;12.50;76.00
75451;DHT22;64029;48.244;9.188;2023-08-06T02:49:49;12.50;76.20
75451;DHT22;64029;48.244;9.188;2023-08-06T02:52:16;12.50;76.40
75451;DHT22;64029;48.244;9.188;2023-08-06T02:54:43;12.40;76.50
75451;DHT22;64029;48.244;9.188;2023-08-06T02:57:09;12.30;76.20
75451;DHT22;64029;48.244;9.188;2023-08-06T02:59:38;12.30;76.20
75451;DHT22;64029;48.244;9.188;2023-08-06T03:02:05;12.30;76.10
75451;DHT22;64029;48.244;9.188;2023-08-06T03:04:32;12.20;76.40
75451;DHT22;64029;48.244;9.188;2023-08-06T03:06:59;12.20;76.70
75451;DHT22;64029;48.244;9.188;2023-08-06T03:09:25;12.20;76.60
75451;DHT22;64029;48.244;9.188;2023-08-06T03:11:52;12.20;76.90
75451;DHT22;64029;48.244;9.188;2023-08-06T03:14:21;12.20;76.80
75451;DHT22;64029;48.244;9.188;2023-08-06T03:16:49;12.20;76.80
75451;DHT22;64029;48.244;9.188;2023-08-06T03:19:16;12.20;76.80
75451;DHT22;64029;48.244;9.188;2023-08-06T03:21:43;12.10;77.50
75451;DHT22;64029;48.244;9.188;2023-08-06T03:24:13;12.10;76.70
75451;DHT22;64029;48.244;9.188;2023-08-06T03:26:39;12.10;77.20
75451;DHT22;64029;48.244;9.188;2023-08-06T03:29:06;12.10;77.00
75451;DHT22;64029;48.244;9.188;2023-08-06T03:31:33;12.10;76.80
75451;DHT22;64029;48.244;9.188;2023-08-06T03:34:02;12.10;77.40
75451;DHT22;64029;48.244;9.188;2023-08-06T03:36:28;12.00;76.60
75451;DHT22;64029;48.244;9.188;2023-08-06T03:38:55;12.00;77.70
75451;DHT22;64029;48.244;9.188;2023-08-06T03:41:22;12.00;77.70
75451;DHT22;64029;48.244;9.188;2023-08-06T03:43:49;12.00;77.10
75451;DHT22;64029;48.244;9.188;2023-08-06T03:46:16;12.00;77.50
75451;DHT22;64029;48.244;9.188;2023-08-06T03:48:42;12.00;76.80
75451;DHT22;64029;48.244;9.188;2023-08-06T03:51:11;12.00;77.20
75451;DHT22;64029;48.244;9.188;2023-08-06T03:53:37;12.00;78.20
75451;DHT22;64029;48.244;9.188;2023-08-06T03:56:04;12.00;77.40
75451;DHT22;64029;48.244;9.188;2023-08-06T03:58:31;12.00;77.50
75451;DHT22;64029;48.244;9.188;2023-08-06T04:00:59;12.10;77.10
75451;DHT22;64029;48.244;9.188;2023-08-06T04:03:26;12.10;78.00
75451;DHT22;64029;48.244;9.188;2023-08-06T04:05:54;12.10;77.50
75451;DHT22;64029;48.244;9.188;2023-08-06T04:08:22;12.10;77.90
75451;DHT22;64029;48.244;9.188;2023-08-06T04:10:50;12.00;79.80
75451;DHT22;64029;48.244;9.188;2023-08-06T04:13:17;12.10;78.50
75451;DHT22;64029;48.244;9.188;2023-08-06T04:15:45;12.00;78.70
75451;DHT22;64029;48.244;9.188;2023-08-06T04:18:16;12.10;78.60
75451;DHT22;64029;48.244;9.188;2023-08-06T04:20:43;12.10;79.50
75451;DHT22;64029;48.244;9.188;2023-08-06T04:23:11;12.10;80.20
75451;DHT22;64029;48.244;9.188;2023-08-06T04:25:42;12.10;81.40
75451;DHT22;64029;48.244;9.188;2023-08-06T04:28:09;12.10;79.60
75451;DHT22;64029;48.244;9.188;2023-08-06T04:30:37;12.20;80.90
75451;DHT22;64029;48.244;9.188;2023-08-06T04:33:04;12.20;81.90
75451;DHT22;64029;48.244;9.188;2023-08-06T04:35:31;12.20;80.60
75451;DHT22;64029;48.244;9.188;2023-08-06T04:37:58;12.20;81.50
75451;DHT22;64029;48.244;9.188;2023-08-06T04:40:25;12.20;81.30
75451;DHT22;64029;48.244;9.188;2023-08-06T04:42:53;12.30;80.30
75451;DHT22;64029;48.244;9.188;2023-08-06T04:45:20;12.30;80.30
75451;DHT22;64029;48.244;9.188;2023-08-06T04:47:50;12.30;80.50
75451;DHT22;64029;48.244;9.188;2023-08-06T04:50:17;12.30;79.90
75451;DHT22;64029;48.244;9.188;2023-08-06T04:52:44;12.30;79.60
75451;DHT22;64029;48.244;9.188;2023-08-06T04:55:10;12.30;79.60
75451;DHT22;64029;48.244;9.188;2023-08-06T04:57:37;12.40;79.40
75451;DHT22;64029;48.244;9.188;2023-08-06T05:00:07;12.40;79.90
75451;DHT22;64029;48.244;9.188;2023-08-06T05:02:34;12.40;79.50
75451;DHT22;64029;48.244;9.188;2023-08-06T05:05:04;12.50;80.50
75451;DHT22;64029;48.244;9.188;2023-08-06T05:07:32;12.50;79.80
75451;DHT22;64029;48.244;9.188;2023-08-06T05:10:01;12.50;80.30
75451;DHT22;64029;48.244;9.188;2023-08-06T05:12:30;12.50;80.60
75451;DHT22;64029;48.244;9.188;2023-08-06T05:14:57;12.50;80.30
75451;DHT22;64029;48.244;9.188;2023-08-06T05:17:25;12.50;81.50
75451;DHT22;64029;48.244;9.188;2023-08-06T05:19:52;12.50;81.20
75451;DHT22;64029;48.244;9.188;2023-08-06T05:22:19;12.50;80.70
75451;DHT22;64029;48.244;9.188;2023-08-06T05:24:46;12.60;81.40
75451;DHT22;64029;48.244;9.188;2023-08-06T05:27:13;12.60;81.70
75451;DHT22;64029;48.244;9.188;2023-08-06T05:29:40;12.60;81.00
75451;DHT22;64029;48.244;9.188;2023-08-06T05:32:07;12.60;80.80
75451;DHT22;64029;48.244;9.188;2023-08-06T05:34:36;12.60;81.40
75451;DHT22;64029;48.244;9.188;2023-08-06T05:37:03;12.60;82.40
75451;DHT22;64029;48.244;9.188;2023-08-06T05:39:30;12.60;81.00
75451;DHT22;64029;48.244;9.188;2023-08-06T05:41:57;12.60;80.90
75451;DHT22;64029;48.244;9.188;2023-08-06T05:44:24;12.70;81.40
75451;DHT22;64029;48.244;9.188;2023-08-06T05:46:51;12.70;81.90
75451;DHT22;64029;48.244;9.188;2023-08-06T05:49:19;12.70;81.00
75451;DHT22;64029;48.244;9.188;2023-08-06T05:51:47;12.70;81.20
75451;DHT22;64029;48.244;9.188;2023-08-06T05:54:14;12.80;80.60
75451;DHT22;64029;48.244;9.188;2023-08-06T05:56:41;12.80;80.20
75451;DHT22;64029;48.244;9.188;2023-08-06T05:59:08;12.90;79.40
75451;DHT22;64029;48.244;9.188;2023-08-06T06:01:35;12.90;79.60
75451;DHT22;64029;48.244;9.188;2023-08-06T06:04:02;13.00;79.40
75451;DHT22;64029;48.244;9.188;2023-08-06T06:06:29;13.00;79.80
75451;DHT22;64029;48.244;9.188;2023-08-06T06:08:58;13.00;79.00
75451;DHT22;64029;48.244;9.188;2023-08-06T06:11:25;13.10;78.90
75451;DHT22;64029;48.244;9.188;2023-08-06T06:13:52;13.10;79.30
75451;DHT22;64029;48.244;9.188;2023-08-06T06:16:19;13.20;79.50
75451;DHT22;64029;48.244;9.188;2023-08-06T06:18:46;13.20;79.40
75451;DHT22;64029;48.244;9.188;2023-08-06T06:21:13;13.20;79.40
75451;DHT22;64029;48.244;9.188;2023-08-06T06:23:40;13.20;79.20
75451;DHT22;64029;48.244;9.188;2023-08-06T06:26:10;13.20;79.10
75451;DHT22;64029;48.244;9.188;2023-08-06T06:28:37;13.20;79.10
75451;DHT22;64029;48.244;9.188;2023-08-06T06:31:04;13.30;79.10
75451;DHT22;64029;48.244;9.188;2023-08-06T06:33:31;13.30;79.20
75451;DHT22;64029;48.244;9.188;2023-08-06T06:35:58;13.30;78.90
75451;DHT22;64029;48.244;9.188;2023-08-06T06:38:25;13.30;78.90
75451;DHT22;64029;48.244;9.188;2023-08-06T06:40:55;13.40;78.70
75451;DHT22;64029;48.244;9.188;2023-08-06T06:43:24;13.40;78.70
75451;DHT22;64029;48.244;9.188;2023-08-06T06:45:56;13.40;78.60
75451;DHT22;64029;48.244;9.188;2023-08-06T06:48:23;13.40;78.60
75451;DHT22;64029;48.244;9.188;2023-08-06T06:50:50;13.50;78.80
75451;DHT22;64029;48.244;9.188;2023-08-06T06:53:17;13.50;78.80
75451;DHT22;64029;48.244;9.188;2023-08-06T06:55:44;13.60;78.80
75451;DHT22;64029;48.244;9.188;2023-08-06T06:58:11;13.60;79.10
75451;DHT22;64029;48.244;9.188;2023-08-06T07:00:39;13.70;79.10
75451;DHT22;64029;48.244;9.188;2023-08-06T07:03:06;13.70;79.10
75451;DHT22;64029;48.244;9.188;2023-08-06T07:05:36;13.70;79.20
75451;DHT22;64029;48.244;9.188;2023-08-06T07:08:04;13.80;79.10
75451;DHT22;64029;48.244;9.188;2023-08-06T07:10:31;13.80;79.00
75451;DHT22;64029;48.244;9.188;2023-08-06T07:13:01;13.80;78.80
75451;DHT22;64029;48.244;9.188;2023-08-06T07:15:28;13.90;78.70
75451;DHT22;64029;48.244;9.188;2023-08-06T07:17:56;13.90;78.70
75451;DHT22;64029;48.244;9.188;2023-08-06T07:20:23;13.90;78.70
75451;DHT22;64029;48.244;9.188;2023-08-06T07:22:50;13.90;78.70
75451;DHT22;64029;48.244;9.188;2023-08-06T07:25:20;13.90;79.00
75451;DHT22;64029;48.244;9.188;2023-08-06T07:27:46;14.00;78.80
75451;DHT22;64029;48.244;9.188;2023-08-06T07:30:13;14.00;78.60
75451;DHT22;64029;48.244;9.188;2023-08-06T07:32:40;14.00;79.10
75451;DHT22;64029;48.244;9.188;2023-08-06T07:35:09;14.00;78.70
75451;DHT22;64029;48.244;9.188;2023-08-06T07:37:38;14.00;78.50
75451;DHT22;64029;48.244;9.188;2023-08-06T07:40:06;14.00;78.70
75451;DHT22;64029;48.244;9.188;2023-08-06T07:42:36;14.00;78.70
75451;DHT22;64029;48.244;9.188;2023-08-06T07:45:07;14.00;78.60
75451;DHT22;64029;48.244;9.188;2023-08-06T07:47:37;14.00;78.70
75451;DHT22;64029;48.244;9.188;2023-08-06T07:50:04;14.10;78.40
75451;DHT22;64029;48.244;9.188;2023-08-06T07:52:33;14.10;78.40
75451;DHT22;64029;48.244;9.188;2023-08-06T07:55:00;14.10;78.70
75451;DHT22;64029;48.244;9.188;2023-08-06T07:57:31;14.10;78.30
75451;DHT22;64029;48.244;9.188;2023-08-06T08:00:01;14.10;78.10
75451;DHT22;64029;48.244;9.188;2023-08-06T08:02:28;14.20;78.20
75451;DHT22;64029;48.244;9.188;2023-08-06T08:04:55;14.10;78.30
75451;DHT22;64029;48.244;9.188;2023-08-06T08:07:25;14.20;78.00
75451;DHT22;64029;48.244;9.188;2023-08-06T08:09:57;14.20;78.10
75451;DHT22;64029;48.244;9.188;2023-08-06T08:12:24;14.20;78.00
75451;DHT22;64029;48.244;9.188;2023-08-06T08:14:53;14.10;77.70
75451;DHT22;64029;48.244;9.188;2023-08-06T08:17:20;14.10;77.80
75451;DHT22;64029;48.244;9.188;2023-08-06T08:19:47;14.10;77.40
75451;DHT22;64029;48.244;9.188;2023-08-06T08:22:14;14.10;77.40
75451;DHT22;64029;48.244;9.188;2023-08-06T08:24:41;14.10;77.50
75451;DHT22;64029;48.244;9.188;2023-08-06T08:27:10;14.10;77.70
75451;DHT22;64029;48.244;9.188;2023-08-06T08:29:37;14.10;77.80
75451;DHT22;64029;48.244;9.188;2023-08-06T08:32:04;14.10;78.40
75451;DHT22;64029;48.244;9.188;2023-08-06T08:34:31;14.10;77.50
75451;DHT22;64029;48.244;9.188;2023-08-06T08:39:26;14.00;77.70
75451;DHT22;64029;48.244;9.188;2023-08-06T08:41:53;14.00;77.70
75451;DHT22;64029;48.244;9.188;2023-08-06T08:44:21;14.10;78.50
75451;DHT22;64029;48.244;9.188;2023-08-06T08:46:49;14.00;77.60
75451;DHT22;64029;48.244;9.188;2023-08-06T08:49:17;14.10;77.90
75451;DHT22;64029;48.244;9.188;2023-08-06T08:51:45;14.10;77.80
75451;DHT22;64029;48.244;9.188;2023-08-06T08:54:13;14.10;77.90
75451;DHT22;64029;48.244;9.188;2023-08-06T08:56:42;14.00;77.80
75451;DHT22;64029;48.244;9.188;2023-08-06T08:59:10;14.00;77.90
75451;DHT22;64029;48.244;9.188;2023-08-06T09:01:39;14.10;78.40
75451;DHT22;64029;48.244;9.188;2023-08-06T09:04:07;14.00;77.80
75451;DHT22;64029;48.244;9.188;2023-08-06T09:06:37;14.10;77.90
75451;DHT22;64029;48.244;9.188;2023-08-06T09:09:09;14.10;77.80
75451;DHT22;64029;48.244;9.188;2023-08-06T09:11:43;14.10;77.70
75451;DHT22;64029;48.244;9.188;2023-08-06T09:14:11;14.10;78.10
75451;DHT22;64029;48.244;9.188;2023-08-06T09:16:40;14.20;78.00
75451;DHT22;64029;48.244;9.188;2023-08-06T09:19:09;14.20;78.00
75451;DHT22;64029;48.244;9.188;2023-08-06T09:21:39;14.20;78.10
75451;DHT22;64029;48.244;9.188;2023-08-06T09:24:10;14.20;78.10
75451;DHT22;64029;48.244;9.188;2023-08-06T09:26:37;14.20;78.50
75451;DHT22;64029;48.244;9.188;2023-08-06T09:29:07;14.30;78.50
75451;DHT22;64029;48.244;9.188;2023-08-06T09:31:41;14.30;78.60
75451;DHT22;64029;48.244;9.188;2023-08-06T09:34:14;14.30;78.60
75451;DHT22;64029;48.244;9.188;2023-08-06T09:36:42;14.30;78.80
75451;DHT22;64029;48.244;9.188;2023-08-06T09:39:15;14.40;78.80
75451;DHT22;64029;48.244;9.188;2023-08-06T09:41:43;14.40;79.00
75451;DHT22;64029;48.244;9.188;2023-08-06T09:44:16;14.40;78.90
75451;DHT22;64029;48.244;9.188;2023-08-06T09:46:47;14.40;78.70
75451;DHT22;64029;48.244;9.188;2023-08-06T09:49:17;14.50;78.90
75451;DHT22;64029;48.244;9.188;2023-08-06T09:51:45;14.50;78.70
75451;DHT22;64029;48.244;9.188;2023-08-06T09:54:12;14.50;78.40
75451;DHT22;64029;48.244;9.188;2023-08-06T09:56:42;14.50;78.80
75451;DHT22;64029;48.244;9.188;2023-08-06T09:59:09;14.60;78.70
75451;DHT22;64029;48.244;9.188;2023-08-06T10:01:37;14.60;78.50
75451;DHT22;64029;48.244;9.188;2023-08-06T10:04:06;14.60;78.20
75451;DHT22;64029;48.244;9.188;2023-08-06T10:06:34;14.70;78.30
75451;DHT22;64029;48.244;9.188;2023-08-06T10:09:02;14.70;78.40
75451;DHT22;64029;48.244;9.188;2023-08-06T10:11:30;14.70;78.50
75451;DHT22;64029;48.244;9.188;2023-08-06T10:14:00;14.70;78.40
75451;DHT22;64029;48.244;9.188;2023-08-06T10:16:30;14.80;78.40
75451;DHT22;64029;48.244;9.188;2023-08-06T10:18:58;14.80;78.20
75451;DHT22;64029;48.244;9.188;2023-08-06T10:21:27;14.80;78.10
75451;DHT22;64029;48.244;9.188;2023-08-06T10:23:56;14.80;78.10
75451;DHT22;64029;48.244;9.188;2023-08-06T10:26:25;14.80;78.10
75451;DHT22;64029;48.244;9.188;2023-08-06T10:28:53;14.80;78.70
75451;DHT22;64029;48.244;9.188;2023-08-06T10:31:21;14.80;78.10
75451;DHT22;64029;48.244;9.188;2023-08-06T10:34:08;14.80;78.10
75451;DHT22;64029;48.244;9.188;2023-08-06T10:36:37;14.80;78.10
75451;DHT22;64029;48.244;9.188;2023-08-06T10:39:04;14.80;78.00
75451;DHT22;64029;48.244;9.188;2023-08-06T10:41:32;14.80;78.10
75451;DHT22;64029;48.244;9.188;2023-08-06T10:44:07;14.80;78.10
75451;DHT22;64029;48.244;9.188;2023-08-06T10:46:35;14.80;78.00
75451;DHT22;64029;48.244;9.188;2023-08-06T10:49:04;14.80;77.80
75451;DHT22;64029;48.244;9.188;2023-08-06T10:51:33;14.70;77.60
75451;DHT22;64029;48.244;9.188;2023-08-06T10:54:01;14.70;77.60
75451;DHT22;64029;48.244;9.188;2023-08-06T10:56:28;14.70;77.50
75451;DHT22;64029;48.244;9.188;2023-08-06T10:58:57;14.70;77.50
75451;DHT22;64029;48.244;9.188;2023-08-06T11:01:28;14.70;77.60
75451;DHT22;64029;48.244;9.188;2023-08-06T11:03:55;14.70;77.40
75451;DHT22;64029;48.244;9.188;2023-08-06T11:06:23;14.70;77.50
75451;DHT22;64029;48.244;9.188;2023-08-06T11:08:52;14.70;77.50
75451;DHT22;64029;48.244;9.188;2023-08-06T11:11:23;14.70;77.60
75451;DHT22;64029;48.244;9.188;2023-08-06T11:13:51;14.70;77.50
75451;DHT22;64029;48.244;9.188;2023-08-06T11:16:20;14.70;77.60
75451;DHT22;64029;48.244;9.188;2023-08-06T11:18:47;14.70;78.30
75451;DHT22;64029;48.244;9.188;2023-08-06T11:21:14;14.70;77.60
75451;DHT22;64029;48.244;9.188;2023-08-06T11:23:41;14.70;77.60
75451;DHT22;64029;48.244;9.188;2023-08-06T11:26:08;14.70;77.60
75451;DHT22;64029;48.244;9.188;2023-08-06T11:28:36;14.80;77.60
75451;DHT22;64029;48.244;9.188;2023-08-06T11:31:03;14.70;77.60
75451;DHT22;64029;48.244;9.188;2023-08-06T11:33:30;14.70;77.50
75451;DHT22;64029;48.244;9.188;2023-08-06T11:35:59;14.80;77.60
75451;DHT22;64029;48.244;9.188;2023-08-06T11:38:26;14.80;78.00
75451;DHT22;64029;48.244;9.188;2023-08-06T11:40:54;14.80;77.50
75451;DHT22;64029;48.244;9.188;2023-08-06T11:43:21;14.80;78.30
75451;DHT22;64029;48.244;9.188;2023-08-06T11:45:54;14.80;77.70
75451;DHT22;64029;48.244;9.188;2023-08-06T11:48:22;14.80;77.50
75451;DHT22;64029;48.244;9.188;2023-08-06T11:50:49;14.90;77.70
75451;DHT22;64029;48.244;9.188;2023-08-06T11:53:20;14.90;78.50
75451;DHT22;64029;48.244;9.188;2023-08-06T11:55:47;14.90;77.80
75451;DHT22;64029;48.244;9.188;2023-08-06T11:58:17;14.90;77.60
75451;DHT22;64029;48.244;9.188;2023-08-06T12:00:44;14.90;77.50
75451;DHT22;64029;48.244;9.188;2023-08-06T12:03:13;14.90;77.60
75451;DHT22;64029;48.244;9.188;2023-08-06T12:05:39;14.90;77.10
75451;DHT22;64029;48.244;9.188;2023-08-06T12:08:09;14.90;77.00
75451;DHT22;64029;48.244;9.188;2023-08-06T12:10:37;14.90;76.90
75451;DHT22;64029;48.244;9.188;2023-08-06T12:13:04;14.90;76.90
75451;DHT22;64029;48.244;9.188;2023-08-06T12:15:31;14.90;77.00
75451;DHT22;64029;48.244;9.188;2023-08-06T12:17:59;14.90;76.80
75451;DHT22;64029;48.244;9.188;2023-08-06T12:20:28;15.00;76.90
75451;DHT22;64029;48.244;9.188;2023-08-06T12:22:55;15.00;76.90
75451;DHT22;64029;48.244;9.188;2023-08-06T12:25:22;15.00;76.90
75451;DHT22;64029;48.244;9.188;2023-08-06T12:27:50;15.00;76.90
75451;DHT22;64029;48.244;9.188;2023-08-06T12:30:17;14.90;76.70
75451;DHT22;64029;48.244;9.188;2023-08-06T12:32:44;15.00;76.80
75451;DHT22;64029;48.244;9.188;2023-08-06T12:35:11;14.90;76.30
75451;DHT22;64029;48.244;9.188;2023-08-06T12:37:41;14.90;76.20
75451;DHT22;64029;48.244;9.188;2023-08-06T12:40:10;14.90;76.30
75451;DHT22;64029;48.244;9.188;2023-08-06T12:42:37;14.90;76.30
75451;DHT22;64029;48.244;9.188;2023-08-06T12:45:05;14.90;76.20
75451;DHT22;64029;48.244;9.188;2023-08-06T12:47:32;14.90;76.30
75451;DHT22;64029;48.244;9.188;2023-08-06T12:49:59;14.90;76.30
75451;DHT22;64029;48.244;9.188;2023-08-06T12:52:26;14.90;76.50
75451;DHT22;64029;48.244;9.188;2023-08-06T12:54:54;14.90;76.60
75451;DHT22;64029;48.244;9.188;2023-08-06T12:57:21;14.90;76.60
75451;DHT22;64029;48.244;9.188;2023-08-06T12:59:48;15.00;76.90
75451;DHT22;64029;48.244;9.188;2023-08-06T13:02:15;15.00;77.00
75451;DHT22;64029;48.244;9.188;2023-08-06T13:04:42;15.00;76.50
75451;DHT22;64029;48.244;9.188;2023-08-06T13:07:09;15.00;76.60
75451;DHT22;64029;48.244;9.188;2023-08-06T13:09:36;15.10;76.40
75451;DHT22;64029;48.244;9.188;2023-08-06T13:12:05;15.00;75.80
75451;DHT22;64029;48.244;9.188;2023-08-06T13:14:32;15.00;75.70
75451;DHT22;64029;48.244;9.188;2023-08-06T13:17:00;15.00;75.70
75451;DHT22;64029;48.244;9.188;2023-08-06T13:19:27;15.00;75.50
75451;DHT22;64029;48.244;9.188;2023-08-06T13:22:03;15.00;75.60
75451;DHT22;64029;48.244;9.188;2023-08-06T13:24:32;15.10;75.60
75451;DHT22;64029;48.244;9.188;2023-08-06T13:27:00;15.10;75.70
75451;DHT22;64029;48.244;9.188;2023-08-06T13:29:28;15.10;75.30
75451;DHT22;64029;48.244;9.188;2023-08-06T13:31:55;15.20;75.20
75451;DHT22;64029;48.244;9.188;2023-08-06T13:34:22;15.20;75.10
75451;DHT22;64029;48.244;9.188;2023-08-06T13:36:49;15.20;75.10
75451;DHT22;64029;48.244;9.188;2023-08-06T13:39:16;15.30;74.70
75451;DHT22;64029;48.244;9.188;2023-08-06T13:41:44;15.30;74.60
75451;DHT22;64029;48.244;9.188;2023-08-06T13:44:11;15.30;74.50
75451;DHT22;64029;48.244;9.188;2023-08-06T13:46:41;15.30;74.70
75451;DHT22;64029;48.244;9.188;2023-08-06T13:49:09;15.40;74.20
75451;DHT22;64029;48.244;9.188;2023-08-06T13:51:35;15.40;74.00
75451;DHT22;64029;48.244;9.188;2023-08-06T13:54:03;15.40;73.90
75451;DHT22;64029;48.244;9.188;2023-08-06T13:56:31;15.40;73.70
75451;DHT22;64029;48.244;9.188;2023-08-06T13:58:59;15.40;73.70
75451;DHT22;64029;48.244;9.188;2023-08-06T14:01:26;15.40;73.50
75451;DHT22;64029;48.244;9.188;2023-08-06T14:03:54;15.50;73.70
75451;DHT22;64029;48.244;9.188;2023-08-06T14:06:21;15.50;73.60
75451;DHT22;64029;48.244;9.188;2023-08-06T14:08:48;15.50;73.30
75451;DHT22;64029;48.244;9.188;2023-08-06T14:11:15;15.50;72.60
75451;DHT22;64029;48.244;9.188;2023-08-06T14:13:42;15.40;72.00
75451;DHT22;64029;48.244;9.188;2023-08-06T14:16:09;15.50;72.40
75451;DHT22;64029;48.244;9.188;2023-08-06T14:18:36;15.50;72.60
75451;DHT22;64029;48.244;9.188;2023-08-06T14:21:05;15.50;72.50
75451;DHT22;64029;48.244;9.188;2023-08-06T14:23:32;15.50;72.40
75451;DHT22;64029;48.244;9.188;2023-08-06T14:26:02;15.50;72.60
75451;DHT22;64029;48.244;9.188;2023-08-06T14:28:29;15.50;72.00
75451;DHT22;64029;48.244;9.188;2023-08-06T14:30:59;15.50;71.70
75451;DHT22;64029;48.244;9.188;2023-08-06T14:33:26;15.50;71.70
75451;DHT22;64029;48.244;9.188;2023-08-06T14:35:53;15.50;71.00
75451;DHT22;64029;48.244;9.188;2023-08-06T14:38:21;15.40;70.40
75451;DHT22;64029;48.244;9.188;2023-08-06T14:40:48;15.40;70.80
75451;DHT22;64029;48.244;9.188;2023-08-06T14:43:15;15.40;71.10
75451;DHT22;64029;48.244;9.188;2023-08-06T14:45:44;15.30;70.60
75451;DHT22;64029;48.244;9.188;2023-08-06T14:48:11;15.40;70.70
75451;DHT22;64029;48.244;9.188;2023-08-06T14:50:38;15.40;71.00
75451;DHT22;64029;48.244;9.188;2023-08-06T14:53:06;15.40;70.80
75451;DHT22;64029;48.244;9.188;2023-08-06T14:55:37;15.40;70.40
75451;DHT22;64029;48.244;9.188;2023-08-06T14:58:04;15.40;70.40
75451;DHT22;64029;48.244;9.188;2023-08-06T15:00:31;15.30;70.10
75451;DHT22;64029;48.244;9.188;2023-08-06T15:02:58;15.40;70.10
75451;DHT22;64029;48.244;9.188;2023-08-06T15:05:25;15.40;70.10
75451;DHT22;64029;48.244;9.188;2023-08-06T15:07:52;15.40;70.00
75451;DHT22;64029;48.244;9.188;2023-08-06T15:10:19;15.40;70.20
75451;DHT22;64029;48.244;9.188;2023-08-06T15:12:48;15.30;70.30
75451;DHT22;64029;48.244;9.188;2023-08-06T15:15:15;15.30;70.20
75451;DHT22;64029;48.244;9.188;2023-08-06T15:17:42;15.30;70.40
75451;DHT22;64029;48.244;9.188;2023-08-06T15:20:10;15.20;69.80
75451;DHT22;64029;48.244;9.188;2023-08-06T15:22:37;15.20;69.70
75451;DHT22;64029;48.244;9.188;2023-08-06T15:25:05;15.20;69.90
75451;DHT22;64029;48.244;9.188;2023-08-06T15:27:32;15.20;69.90
75451;DHT22;64029;48.244;9.188;2023-08-06T15:30:02;15.10;69.60
75451;DHT22;64029;48.244;9.188;2023-08-06T15:32:29;15.10;69.40
75451;DHT22;64029;48.244;9.188;2023-08-06T15:34:56;15.10;69.50
75451;DHT22;64029;48.244;9.188;2023-08-06T15:37:23;15.10;69.50